Time;durP1;ratioP1;P1;durP2;ratioP2;P2;SDS_P1;SDS_P2;PMS_P1;PMS_P2;Temp;Humidity;BMP_temperature;BMP_pressure;BME280_temperature;BME280_humidity;BME280_pressure;Samples;Min_cycle;Max_cycle;Signal;HPM_P1;HPM_P2
2023/04/15 00:03:22;;;;;;;;;;;;;;;10.57;64.75;99755.50;216102;1255;72432;-74
2023/04/15 00:08:16;;;;;;;;;;;;;;;10.56;64.78;99754.46;216016;1252;64719;-74
2023/04/15 00:13:09;;;;;;;;;;;;;;;10.55;64.78;99750.83;215825;1253;367519;-73
2023/04/15 00:18:07;;;;;;;;;;;;;;;10.54;64.99;99755.14;215933;1253;61251;-74
2023/04/15 00:23:02;;;;;;;;;;;;;;;10.52;65.32;99754.27;215972;1252;74374;-73
2023/04/15 00:27:55;;;;;;;;;;;;;;;10.47;66.07;99749.77;215946;1254;72411;-73
2023/04/15 00:32:48;;;;;;;;;;;;;;;10.38;66.57;99747.30;215949;1251;62755;-73
2023/04/15 00:37:42;;;;;;;;;;;;;;;10.30;66.42;99743.98;215842;1251;66828;-73
2023/04/15 00:42:38;;;;;;;;;;;;;;;10.27;66.49;99746.05;215865;1251;61464;-73
2023/04/15 00:47:31;;;;;;;;;;;;;;;10.26;66.71;99747.08;215992;1252;74555;-73
2023/04/15 00:52:24;;;;;;;;;;;;;;;10.25;66.91;99744.48;216055;1251;72531;-73
2023/04/15 00:57:18;;;;;;;;;;;;;;;10.23;67.11;99744.13;215928;1251;61215;-73
2023/04/15 01:02:10;;;;;;;;;;;;;;;10.21;67.40;99745.16;215865;1256;61359;-73
2023/04/15 01:07:03;;;;;;;;;;;;;;;10.17;67.79;99738.73;215997;1251;61244;-73
2023/04/15 01:11:56;;;;;;;;;;;;;;;10.13;67.83;99739.27;215921;1253;61286;-74
2023/04/15 01:16:49;;;;;;;;;;;;;;;10.10;67.89;99734.40;215787;1254;61287;-74
2023/04/15 01:21:42;;;;;;;;;;;;;;;10.08;67.84;99736.29;215911;1257;61292;-73
2023/04/15 01:26:36;;;;;;;;;;;;;;;10.07;68.04;99733.87;215907;1256;61294;-73
2023/04/15 01:31:31;;;;;;;;;;;;;;;10.04;68.46;99732.30;215851;1251;61282;-73
2023/04/15 01:36:24;;;;;;;;;;;;;;;9.99;68.78;99730.20;215822;1252;61349;-73
2023/04/15 01:41:22;;;;;;;;;;;;;;;9.96;69.21;99733.48;216174;1251;71341;-73
2023/04/15 01:46:16;;;;;;;;;;;;;;;9.92;69.34;99731.38;216202;1254;61276;-73
2023/04/15 01:51:09;;;;;;;;;;;;;;;9.89;69.69;99731.37;216051;1255;61409;-73
2023/04/15 01:56:02;;;;;;;;;;;;;;;9.85;69.81;99733.95;216077;1251;61205;-73
2023/04/15 02:00:54;;;;;;;;;;;;;;;9.82;70.09;99734.81;216084;1256;61414;-73
2023/04/15 02:05:49;;;;;;;;;;;;;;;9.79;70.16;99734.10;216077;1255;61250;-73
2023/04/15 02:10:42;;;;;;;;;;;;;;;9.75;70.23;99730.63;216106;1251;61242;-73
2023/04/15 02:15:35;;;;;;;;;;;;;;;9.72;70.60;99728.35;216071;1251;61267;-73
2023/04/15 02:20:29;;;;;;;;;;;;;;;9.71;70.81;99723.86;216037;1253;61693;-73
2023/04/15 02:25:22;;;;;;;;;;;;;;;9.71;70.83;99726.27;216303;1255;74563;-73
2023/04/15 02:30:15;;;;;;;;;;;;;;;9.70;70.91;99727.66;216077;1253;61362;-73
2023/04/15 02:35:08;;;;;;;;;;;;;;;9.68;71.21;99728.34;216195;1251;61241;-74
2023/04/15 02:40:01;;;;;;;;;;;;;;;9.67;71.46;99726.77;216287;1254;61365;-73
2023/04/15 02:44:54;;;;;;;;;;;;;;;9.63;71.74;99724.86;216086;1251;61669;-73
2023/04/15 02:49:47;;;;;;;;;;;;;;;9.60;71.81;99725.88;216048;1251;61217;-73
2023/04/15 02:54:40;;;;;;;;;;;;;;;9.58;72.06;99725.52;216118;1251;72535;-73
2023/04/15 02:59:33;;;;;;;;;;;;;;;9.56;72.24;99724.48;216151;1251;61343;-73
2023/04/15 03:04:28;;;;;;;;;;;;;;;9.54;72.22;99725.50;216031;1251;61363;-73
2023/04/15 03:09:21;;;;;;;;;;;;;;;9.53;72.39;99726.36;216135;1251;61240;-74
2023/04/15 03:14:15;;;;;;;;;;;;;;;9.52;72.45;99726.89;216093;1251;72120;-73
2023/04/15 03:19:10;;;;;;;;;;;;;;;9.51;72.65;99729.48;216137;1251;72861;-73
2023/04/15 03:24:03;;;;;;;;;;;;;;;9.51;72.74;99728.95;216045;1251;61346;-73
2023/04/15 03:28:57;;;;;;;;;;;;;;;9.51;72.95;99728.95;216014;1251;67858;-73
2023/04/15 03:33:51;;;;;;;;;;;;;;;9.51;72.88;99730.69;216178;1251;61369;-73
2023/04/15 03:38:44;;;;;;;;;;;;;;;9.51;72.82;99732.25;216037;1254;61917;-73
2023/04/15 03:43:37;;;;;;;;;;;;;;;9.52;73.06;99732.58;216084;1251;72472;-74
2023/04/15 03:48:30;;;;;;;;;;;;;;;9.51;73.21;99731.89;216085;1251;61246;-73
2023/04/15 03:53:23;;;;;;;;;;;;;;;9.51;73.49;99735.88;216070;1254;61263;-73
2023/04/15 03:58:15;;;;;;;;;;;;;;;9.49;73.54;99737.92;216078;1251;61349;-73
2023/04/15 04:03:08;;;;;;;;;;;;;;;9.47;73.95;99743.28;216104;1255;62059;-73
2023/04/15 04:08:01;;;;;;;;;;;;;;;9.45;74.18;99747.25;216129;1251;61267;-73
2023/04/15 04:12:54;;;;;;;;;;;;;;;9.43;74.47;99744.82;216162;1251;61480;-73
2023/04/15 04:17:46;;;;;;;;;;;;;;;9.40;74.65;99749.47;216260;1253;61281;-74
2023/04/15 04:22:40;;;;;;;;;;;;;;;9.38;74.79;99746.17;216090;1251;61362;-73
2023/04/15 04:27:33;;;;;;;;;;;;;;;9.36;75.20;99747.54;216137;1255;61244;-73
2023/04/15 04:32:26;;;;;;;;;;;;;;;9.36;75.11;99750.65;216271;1251;61366;-73
2023/04/15 04:37:19;;;;;;;;;;;;;;;9.35;75.47;99750.80;216138;1251;61259;-73
2023/04/15 04:42:11;;;;;;;;;;;;;;;9.34;75.60;99747.34;216071;1251;61320;-73
2023/04/15 04:47:05;;;;;;;;;;;;;;;9.31;75.69;99749.92;216146;1255;72061;-73
2023/04/15 04:51:58;;;;;;;;;;;;;;;9.31;75.93;99749.58;216146;1251;61394;-73
2023/04/15 04:56:51;;;;;;;;;;;;;;;9.31;76.01;99747.16;216144;1251;61264;-73
2023/04/15 05:01:44;;;;;;;;;;;;;;;9.32;76.30;99747.00;216189;1251;61276;-73
2023/04/15 05:06:38;;;;;;;;;;;;;;;9.33;76.30;99747.52;216131;1251;61250;-73
2023/04/15 05:11:31;;;;;;;;;;;;;;;9.33;76.29;99754.09;216146;1251;61888;-73
2023/04/15 05:16:24;;;;;;;;;;;;;;;9.36;76.48;99750.30;216239;1251;61289;-73
2023/04/15 05:21:17;;;;;;;;;;;;;;;9.36;76.76;99751.52;216110;1256;72571;-73
2023/04/15 05:26:10;;;;;;;;;;;;;;;9.37;76.86;99750.83;216102;1251;61272;-73
2023/04/15 05:31:03;;;;;;;;;;;;;;;9.38;76.84;99748.75;216123;1255;61255;-73
2023/04/15 05:35:56;;;;;;;;;;;;;;;9.35;76.89;99750.98;216074;1254;61273;-73
2023/04/15 05:40:48;;;;;;;;;;;;;;;9.34;77.30;99755.30;216130;1251;61269;-73
2023/04/15 05:45:41;;;;;;;;;;;;;;;9.32;77.28;99759.45;216095;1254;61766;-73
2023/04/15 05:50:34;;;;;;;;;;;;;;;9.31;77.42;99762.04;216108;1254;61351;-74
2023/04/15 05:55:27;;;;;;;;;;;;;;;9.31;77.53;99763.94;216220;1250;61725;-73
2023/04/15 06:00:20;;;;;;;;;;;;;;;9.31;77.61;99762.90;216018;1251;61272;-73
2023/04/15 06:05:13;;;;;;;;;;;;;;;9.35;77.74;99761.20;216203;1251;61799;-73
2023/04/15 06:10:06;;;;;;;;;;;;;;;9.39;77.67;99762.77;216184;1253;61698;-74
2023/04/15 06:14:59;;;;;;;;;;;;;;;9.40;77.97;99767.27;216199;1251;61433;-73
2023/04/15 06:19:54;;;;;;;;;;;;;;;9.39;77.92;99770.56;216148;1251;61280;-73
2023/04/15 06:24:47;;;;;;;;;;;;;;;9.38;77.93;99774.19;216076;1251;61272;-73
2023/04/15 06:29:40;;;;;;;;;;;;;;;9.38;77.99;99778.85;215948;1251;73108;-73
2023/04/15 06:34:33;;;;;;;;;;;;;;;9.36;78.15;99775.55;216014;1251;72551;-73
2023/04/15 06:39:26;;;;;;;;;;;;;;;9.37;78.28;99778.16;215968;1253;61350;-73
2023/04/15 06:44:19;;;;;;;;;;;;;;;9.39;78.28;99781.64;215939;1253;61295;-72
2023/04/15 06:49:12;;;;;;;;;;;;;;;9.39;78.35;99783.89;215965;1252;61363;-73
2023/04/15 06:54:05;;;;;;;;;;;;;;;9.40;78.46;99783.36;215947;1251;61243;-73
2023/04/15 06:58:58;;;;;;;;;;;;;;;9.40;78.54;99787.86;216027;1254;61302;-73
2023/04/15 07:03:51;;;;;;;;;;;;;;;9.44;78.54;99791.00;216064;1255;61478;-73
2023/04/15 07:08:44;;;;;;;;;;;;;;;9.48;78.75;99796.04;215953;1251;61317;-73
2023/04/15 07:13:36;;;;;;;;;;;;;;;9.51;78.68;99798.33;216061;1255;62776;-73
2023/04/15 07:18:29;;;;;;;;;;;;;;;9.54;78.59;99802.14;216039;1253;61370;-73
2023/04/15 07:23:22;;;;;;;;;;;;;;;9.53;78.58;99802.32;215966;1251;61361;-73
2023/04/15 07:28:15;;;;;;;;;;;;;;;9.52;78.58;99806.29;215986;1253;61253;-73
2023/04/15 07:33:08;;;;;;;;;;;;;;;9.51;78.80;99802.30;215921;1253;61320;-74
2023/04/15 07:38:02;;;;;;;;;;;;;;;9.52;78.82;99805.41;215924;1253;61484;-74
2023/04/15 07:42:57;;;;;;;;;;;;;;;9.52;78.86;99804.02;216166;1253;61285;-74
2023/04/15 07:47:50;;;;;;;;;;;;;;;9.52;78.92;99800.92;216107;1253;72545;-73
2023/04/15 07:52:43;;;;;;;;;;;;;;;9.51;78.84;99800.57;216185;1251;61279;-74
2023/04/15 07:57:36;;;;;;;;;;;;;;;9.51;78.74;99802.13;215976;1251;67975;-74
2023/04/15 08:02:30;;;;;;;;;;;;;;;9.54;78.96;99797.98;217074;1251;61335;-73
2023/04/15 08:07:24;;;;;;;;;;;;;;;9.64;78.93;99799.44;216036;1251;75465;-73
2023/04/15 08:12:17;;;;;;;;;;;;;;;9.76;78.88;99805.04;216103;1251;77677;-74
2023/04/15 08:17:10;;;;;;;;;;;;;;;9.87;78.92;99795.06;216361;1251;61306;-73
2023/04/15 08:22:03;;;;;;;;;;;;;;;9.99;78.62;99800.14;216177;1251;61315;-73
2023/04/15 08:26:56;;;;;;;;;;;;;;;10.10;78.47;99800.55;216185;1253;61353;-75
2023/04/15 08:31:49;;;;;;;;;;;;;;;10.15;78.36;99802.12;216212;1254;74500;-75
2023/04/15 08:36:42;;;;;;;;;;;;;;;10.22;78.47;99804.73;216236;1251;59979;-75
2023/04/15 08:41:46;;;;;;;;;;;;;;;10.27;78.57;99805.11;216163;1251;61364;-74
2023/04/15 08:46:39;;;;;;;;;;;;;;;10.26;78.48;99811.16;216206;1253;67674;-74
2023/04/15 08:51:33;;;;;;;;;;;;;;;10.31;78.36;99810.67;216010;1253;61315;-74
2023/04/15 08:56:26;;;;;;;;;;;;;;;10.33;78.43;99811.39;215956;1251;75627;-74
2023/04/15 09:01:19;;;;;;;;;;;;;;;10.40;78.53;99808.83;216244;1254;72442;-74
2023/04/15 09:06:12;;;;;;;;;;;;;;;10.48;78.60;99812.83;216019;1251;61267;-74
2023/04/15 09:11:05;;;;;;;;;;;;;;;10.55;78.56;99813.73;216165;1251;61361;-74
2023/04/15 09:15:58;;;;;;;;;;;;;;;10.56;78.64;99813.20;216147;1253;61253;-74
2023/04/15 09:20:53;;;;;;;;;;;;;;;10.49;78.69;99814.73;216034;1255;61248;-74
2023/04/15 09:25:46;;;;;;;;;;;;;;;10.48;78.30;99816.28;216127;1251;72616;-74
2023/04/15 09:30:38;;;;;;;;;;;;;;;10.46;78.44;99814.02;216251;1251;61282;-72
2023/04/15 09:35:31;;;;;;;;;;;;;;;10.54;78.59;99817.34;216182;1251;61362;-72
2023/04/15 09:40:34;;;;;;;;;;;;;;;10.71;78.39;99818.27;216158;1251;61277;-72
2023/04/15 09:45:28;;;;;;;;;;;;;;;10.88;78.06;99819.49;216075;1251;74478;-73
2023/04/15 09:50:21;;;;;;;;;;;;;;;10.90;78.00;99821.23;216335;1255;72347;-72
2023/04/15 09:55:14;;;;;;;;;;;;;;;10.99;78.15;99823.85;216187;1255;61232;-74
2023/04/15 10:00:10;;;;;;;;;;;;;;;11.20;77.71;99827.33;216264;1251;67116;-75
2023/04/15 10:05:03;;;;;;;;;;;;;;;11.31;77.44;99830.46;216233;1251;61233;-73
2023/04/15 10:09:56;;;;;;;;;;;;;;;11.28;77.65;99830.62;216183;1255;74133;-74
2023/04/15 10:14:56;;;;;;;;;;;;;;;11.32;77.48;99834.95;216172;1251;71909;-74
2023/04/15 10:19:49;;;;;;;;;;;;;;;11.28;77.52;99834.09;216300;1251;61591;-74
2023/04/15 10:24:44;;;;;;;;;;;;;;;11.26;77.54;99829.92;216276;1253;61373;-74
2023/04/15 10:29:37;;;;;;;;;;;;;;;11.28;77.57;99833.04;216329;1251;62674;-74
2023/04/15 10:34:31;;;;;;;;;;;;;;;11.27;77.56;99830.45;216327;1250;74208;-74
2023/04/15 10:39:33;;;;;;;;;;;;;;;11.22;77.71;99829.94;216168;1251;72924;-74
2023/04/15 10:44:26;;;;;;;;;;;;;;;11.14;78.00;99831.67;216210;1251;61234;-74
2023/04/15 10:49:25;;;;;;;;;;;;;;;11.15;78.10;99832.70;216233;1251;61380;-74
2023/04/15 10:54:31;;;;;;;;;;;;;;;11.32;78.09;99830.29;216055;1251;61213;-73
2023/04/15 10:59:23;;;;;;;;;;;;;;;11.43;77.81;99835.65;216114;1253;72233;-73
2023/04/15 11:04:36;;;;;;;;;;;;;;;11.36;77.60;99835.48;216029;1251;61276;-72
2023/04/15 11:09:33;;;;;;;;;;;;;;;11.27;77.79;99831.33;216135;1253;61331;-74
2023/04/15 11:14:26;;;;;;;;;;;;;;;11.21;77.95;99831.15;216029;1251;66130;-73
2023/04/15 11:19:19;;;;;;;;;;;;;;;11.13;77.98;99830.80;216191;1251;61351;-74
2023/04/15 11:24:12;;;;;;;;;;;;;;;11.02;78.10;99835.81;216223;1251;74094;-74
2023/04/15 11:29:04;;;;;;;;;;;;;;;10.98;78.66;99840.15;216185;1253;61222;-74
2023/04/15 11:33:58;;;;;;;;;;;;;;;11.05;78.62;99850.55;216232;1253;61253;-74
2023/04/15 11:38:51;;;;;;;;;;;;;;;11.66;78.04;99854.38;216129;1251;68075;-74
2023/04/15 11:43:44;;;;;;;;;;;;;;;12.11;77.37;99853.61;216099;1255;61327;-75
2023/04/15 11:48:37;;;;;;;;;;;;;;;12.19;77.11;99856.89;216292;1253;61996;-73
2023/04/15 11:53:42;;;;;;;;;;;;;;;11.96;76.77;99862.68;216140;1253;61331;-74
2023/04/15 11:58:36;;;;;;;;;;;;;;;11.77;77.24;99868.77;216121;1251;61266;-76
2023/04/15 12:03:36;;;;;;;;;;;;;;;12.06;77.01;99871.86;218689;1251;65938;-76
2023/04/15 12:08:48;;;;;;;;;;;;;;;12.47;76.22;99876.09;216616;1251;61333;-74
2023/04/15 12:13:44;;;;;;;;;;;;;;;12.57;76.18;99882.81;216114;1251;74653;-74
2023/04/15 12:18:40;;;;;;;;;;;;;;;12.50;75.56;99887.54;216227;1251;70272;-74
2023/04/15 12:23:36;;;;;;;;;;;;;;;12.59;75.54;99892.02;216116;1253;61310;-75
2023/04/15 12:28:30;;;;;;;;;;;;;;;12.72;74.95;99904.13;216066;1253;65606;-74
2023/04/15 12:33:23;;;;;;;;;;;;;;;12.93;74.91;99906.10;216182;1251;62016;-74
2023/04/15 12:38:16;;;;;;;;;;;;;;;13.10;74.60;99901.48;216060;1251;61224;-74
2023/04/15 12:43:09;;;;;;;;;;;;;;;13.31;74.55;99905.88;216080;1251;61254;-74
2023/04/15 12:48:01;;;;;;;;;;;;;;;13.46;73.40;99906.48;216146;1253;61362;-74
2023/04/15 12:52:54;;;;;;;;;;;;;;;13.48;72.81;99909.94;216043;1253;61292;-74
2023/04/15 12:57:47;;;;;;;;;;;;;;;13.49;72.88;99912.39;216137;1255;61272;-75
2023/04/15 13:02:40;;;;;;;;;;;;;;;13.49;72.89;99914.64;216109;1251;61311;-74
2023/04/15 13:07:33;;;;;;;;;;;;;;;13.56;72.42;99916.15;216039;1255;61373;-74
2023/04/15 13:12:26;;;;;;;;;;;;;;;13.85;71.88;99923.58;216024;1251;61340;-74
2023/04/15 13:17:20;;;;;;;;;;;;;;;13.85;71.34;99932.80;216048;1253;61255;-74
2023/04/15 13:22:14;;;;;;;;;;;;;;;13.78;71.31;99935.65;216135;1251;61196;-75
2023/04/15 13:27:07;;;;;;;;;;;;;;;13.96;70.77;99940.36;216137;1251;75244;-74
2023/04/15 13:32:00;;;;;;;;;;;;;;;14.06;70.07;99939.56;216094;1253;72553;-74
2023/04/15 13:36:53;;;;;;;;;;;;;;;13.80;70.40;99950.60;216038;1252;61222;-74
2023/04/15 13:41:47;;;;;;;;;;;;;;;13.50;70.47;99948.58;216110;1253;61376;-74
2023/04/15 13:46:40;;;;;;;;;;;;;;;13.22;70.89;99957.09;216129;1253;61226;-74
2023/04/15 13:51:35;;;;;;;;;;;;;;;13.02;71.07;99951.11;216205;1251;74630;-75
2023/04/15 13:56:28;;;;;;;;;;;;;;;13.09;71.29;99953.51;216001;1251;70324;-74
2023/04/15 14:01:27;;;;;;;;;;;;;;;13.11;71.12;99947.23;216018;1251;61550;-74
2023/04/15 14:06:20;;;;;;;;;;;;;;;13.30;70.76;99939.64;216081;1251;65699;-75
2023/04/15 14:11:13;;;;;;;;;;;;;;;13.48;70.54;99949.29;215916;1252;61392;-75
2023/04/15 14:16:06;;;;;;;;;;;;;;;13.46;70.88;99956.09;215975;1251;61264;-74
2023/04/15 14:20:59;;;;;;;;;;;;;;;13.40;70.61;99953.54;216139;1251;71057;-74
2023/04/15 14:25:53;;;;;;;;;;;;;;;13.34;69.99;99955.30;216163;1253;61308;-74
2023/04/15 14:30:46;;;;;;;;;;;;;;;13.26;69.64;99957.07;216238;1251;66850;-74
2023/04/15 14:35:39;;;;;;;;;;;;;;;13.31;69.80;99956.19;216228;1251;61337;-74
2023/04/15 14:40:33;;;;;;;;;;;;;;;13.37;69.67;99956.68;216163;1253;61318;-74
2023/04/15 14:45:26;;;;;;;;;;;;;;;13.37;69.65;99961.38;216156;1252;71116;-75
2023/04/15 14:50:20;;;;;;;;;;;;;;;13.82;69.13;99971.33;216051;1253;61287;-74
2023/04/15 14:55:13;;;;;;;;;;;;;;;14.33;68.76;99973.99;216178;1253;61296;-74
2023/04/15 15:00:07;;;;;;;;;;;;;;;14.25;67.90;99979.30;216240;1253;61241;-74
2023/04/15 15:05:01;;;;;;;;;;;;;;;13.88;67.89;99997.75;216240;1252;75617;-73
2023/04/15 15:09:54;;;;;;;;;;;;;;;13.63;67.95;100000.02;216088;1251;73436;-74
2023/04/15 15:14:47;;;;;;;;;;;;;;;13.21;68.27;100005.30;216073;1253;61239;-74
2023/04/15 15:19:40;;;;;;;;;;;;;;;12.77;68.71;100016.96;216197;1252;61366;-74
2023/04/15 15:24:32;;;;;;;;;;;;;;;12.67;69.25;100017.69;215979;1253;61283;-74
2023/04/15 15:29:25;;;;;;;;;;;;;;;12.59;69.25;100009.71;216093;1253;61401;-74
2023/04/15 15:34:18;;;;;;;;;;;;;;;12.92;68.93;100008.20;216193;1253;61389;-74
2023/04/15 15:39:10;;;;;;;;;;;;;;;13.25;68.56;100010.15;216347;1253;61268;-74
2023/04/15 15:44:03;;;;;;;;;;;;;;;13.22;68.33;100006.16;216260;1253;61570;-74
2023/04/15 15:48:57;;;;;;;;;;;;;;;13.08;68.06;100003.09;216223;1251;61174;-74
2023/04/15 15:53:50;;;;;;;;;;;;;;;13.01;67.72;100003.99;216264;1253;61324;-74
2023/04/15 15:58:43;;;;;;;;;;;;;;;12.93;67.85;100000.20;216161;1252;61221;-74
2023/04/15 16:03:36;;;;;;;;;;;;;;;12.89;67.80;100003.70;216234;1253;61346;-73
2023/04/15 16:08:29;;;;;;;;;;;;;;;12.83;67.86;100017.64;216162;1253;61255;-74
2023/04/15 16:13:22;;;;;;;;;;;;;;;12.62;67.64;100029.52;216209;1253;61909;-74
2023/04/15 16:18:15;;;;;;;;;;;;;;;12.27;67.93;100039.66;216158;1253;61277;-73
2023/04/15 16:23:17;;;;;;;;;;;;;;;12.05;68.30;100048.87;216113;1252;61373;-74
2023/04/15 16:28:10;;;;;;;;;;;;;;;11.86;68.61;100049.17;216181;1252;61232;-74
2023/04/15 16:33:18;;;;;;;;;;;;;;;11.71;69.12;100055.23;216175;1252;65600;-74
2023/04/15 16:38:10;;;;;;;;;;;;;;;11.56;69.56;100062.13;216181;1253;61255;-73
2023/04/15 16:43:06;;;;;;;;;;;;;;;11.41;69.88;100070.61;216180;1251;61272;-74
2023/04/15 16:47:59;;;;;;;;;;;;;;;11.29;70.16;100079.41;216117;1251;71382;-74
2023/04/15 16:52:52;;;;;;;;;;;;;;;11.19;70.43;100085.79;216014;1253;61310;-74
2023/04/15 16:57:45;;;;;;;;;;;;;;;11.13;70.64;100095.64;216113;1253;61286;-73
2023/04/15 17:02:55;;;;;;;;;;;;;;;11.05;70.92;100106.36;216142;1253;61334;-74
2023/04/15 17:07:48;;;;;;;;;;;;;;;10.96;71.06;100114.45;216084;1252;74302;-73
2023/04/15 17:12:41;;;;;;;;;;;;;;;10.81;71.06;100120.61;216020;1253;61485;-74
2023/04/15 17:17:34;;;;;;;;;;;;;;;10.71;71.40;100121.07;216044;1253;61314;-73
2023/04/15 17:22:27;;;;;;;;;;;;;;;10.57;71.33;100122.70;216085;1253;61207;-74
2023/04/15 17:27:20;;;;;;;;;;;;;;;10.46;71.57;100122.27;216120;1251;61346;-75
2023/04/15 17:32:13;;;;;;;;;;;;;;;10.35;71.67;100126.67;216230;1253;74091;-74
2023/04/15 17:37:06;;;;;;;;;;;;;;;10.25;71.94;100128.13;216085;1253;61212;-74
2023/04/15 17:41:59;;;;;;;;;;;;;;;10.17;72.14;100133.23;216170;1253;61352;-74
2023/04/15 17:46:51;;;;;;;;;;;;;;;10.09;72.33;100142.52;215999;1251;61391;-74
2023/04/15 17:51:45;;;;;;;;;;;;;;;10.00;72.48;100153.34;215813;1252;61263;-73
2023/04/15 17:56:39;;;;;;;;;;;;;;;9.91;72.48;100164.32;216109;1253;75477;-73
2023/04/15 18:01:32;;;;;;;;;;;;;;;9.85;72.77;100172.23;216080;1253;61366;-74
2023/04/15 18:06:26;;;;;;;;;;;;;;;9.78;72.51;100187.04;216229;1251;61261;-73
2023/04/15 18:11:18;;;;;;;;;;;;;;;9.73;72.72;100200.83;216087;1253;68277;-73
2023/04/15 18:16:11;;;;;;;;;;;;;;;9.72;72.93;100209.45;216090;1253;61252;-73
2023/04/15 18:21:04;;;;;;;;;;;;;;;9.73;72.80;100216.73;216066;1253;61281;-73
2023/04/15 18:25:57;;;;;;;;;;;;;;;9.76;73.07;100224.56;215998;1255;61273;-73
2023/04/15 18:30:51;;;;;;;;;;;;;;;9.80;73.08;100237.25;216205;1251;61407;-73
2023/04/15 18:35:43;;;;;;;;;;;;;;;9.82;72.99;100239.35;216066;1251;61212;-72
2023/04/15 18:40:36;;;;;;;;;;;;;;;9.80;72.92;100249.52;216131;1253;61336;-73
2023/04/15 18:45:30;;;;;;;;;;;;;;;9.79;73.25;100249.86;216161;1255;61279;-73
2023/04/15 18:50:22;;;;;;;;;;;;;;;9.78;73.06;100254.70;216132;1252;61338;-72
2023/04/15 18:55:16;;;;;;;;;;;;;;;9.74;73.22;100255.00;216076;1252;61211;-73
2023/04/15 19:00:12;;;;;;;;;;;;;;;9.73;73.26;100259.14;216256;1255;67148;-73
2023/04/15 19:05:05;;;;;;;;;;;;;;;9.69;73.11;100261.86;216281;1253;61347;-73
2023/04/15 19:09:58;;;;;;;;;;;;;;;9.66;73.17;100262.86;216192;1255;75305;-73
2023/04/15 19:14:51;;;;;;;;;;;;;;;9.63;73.27;100265.06;216055;1253;61590;-73
2023/04/15 19:19:43;;;;;;;;;;;;;;;9.60;73.03;100264.33;216188;1255;61265;-73
2023/04/15 19:24:37;;;;;;;;;;;;;;;9.55;73.20;100273.60;216199;1253;61365;-74
2023/04/15 19:29:29;;;;;;;;;;;;;;;9.52;73.30;100282.05;216115;1253;61150;-73
2023/04/15 19:34:23;;;;;;;;;;;;;;;9.50;73.26;100286.52;216033;1255;61361;-73
2023/04/15 19:39:18;;;;;;;;;;;;;;;9.47;73.17;100288.55;216134;1255;72488;-72
2023/04/15 19:44:11;;;;;;;;;;;;;;;9.45;73.37;100294.41;216199;1253;61266;-74
2023/04/15 19:49:05;;;;;;;;;;;;;;;9.45;73.70;100299.41;216077;1251;66324;-74
2023/04/15 19:53:58;;;;;;;;;;;;;;;9.43;73.71;100302.67;215971;1253;61311;-74
2023/04/15 19:58:51;;;;;;;;;;;;;;;9.42;73.66;100308.19;216088;1251;61331;-73
2023/04/15 20:03:45;;;;;;;;;;;;;;;9.38;73.67;100316.95;216113;1253;71875;-74
2023/04/15 20:08:38;;;;;;;;;;;;;;;9.34;73.91;100317.94;216093;1253;61257;-75
2023/04/15 20:13:31;;;;;;;;;;;;;;;9.33;73.72;100315.49;216088;1255;61231;-75
2023/04/15 20:18:24;;;;;;;;;;;;;;;9.33;74.02;100314.98;216260;1255;61324;-74
2023/04/15 20:23:17;;;;;;;;;;;;;;;9.31;74.00;100317.02;216178;1255;61249;-76
2023/04/15 20:28:10;;;;;;;;;;;;;;;9.30;73.87;100316.14;216087;1254;61261;-76
2023/04/15 20:33:04;;;;;;;;;;;;;;;9.26;73.97;100315.91;216024;1250;61362;-75
2023/04/15 20:37:57;;;;;;;;;;;;;;;9.23;74.09;100314.47;216134;1253;65608;-74
2023/04/15 20:42:49;;;;;;;;;;;;;;;9.21;74.17;100313.40;216184;1256;61156;-75
2023/04/15 20:47:42;;;;;;;;;;;;;;;9.20;74.18;100317.00;216196;1251;61252;-74
2023/04/15 20:52:35;;;;;;;;;;;;;;;9.18;74.62;100316.30;216200;1255;61266;-74
2023/04/15 20:57:29;;;;;;;;;;;;;;;9.15;74.47;100317.96;216276;1255;61461;-74
2023/04/15 21:02:25;;;;;;;;;;;;;;;9.12;74.47;100315.86;216245;1251;66853;-74
2023/04/15 21:07:18;;;;;;;;;;;;;;;9.10;74.46;100318.42;216187;1251;61326;-75
2023/04/15 21:12:11;;;;;;;;;;;;;;;9.07;74.56;100324.60;216235;1256;61375;-75
2023/04/15 21:17:05;;;;;;;;;;;;;;;9.07;74.73;100328.21;216239;1254;61225;-75
2023/04/15 21:22:03;;;;;;;;;;;;;;;9.05;74.82;100330.95;216151;1251;61242;-76
2023/04/15 21:26:56;;;;;;;;;;;;;;;9.02;74.82;100336.08;216231;1254;67689;-75
2023/04/15 21:31:48;;;;;;;;;;;;;;;8.97;74.87;100333.92;216217;1251;61371;-75
2023/04/15 21:36:41;;;;;;;;;;;;;;;8.93;74.96;100331.77;216239;1256;61340;-75
2023/04/15 21:41:35;;;;;;;;;;;;;;;8.89;75.08;100333.08;216272;1255;61223;-76
2023/04/15 21:46:28;;;;;;;;;;;;;;;8.86;75.30;100332.16;216184;1254;61227;-75
2023/04/15 21:51:27;;;;;;;;;;;;;;;8.84;75.37;100333.86;216189;1251;67326;-76
2023/04/15 21:56:21;;;;;;;;;;;;;;;8.82;75.31;100339.52;216329;1252;61477;-75
2023/04/15 22:01:15;;;;;;;;;;;;;;;8.80;75.42;100343.98;216370;1251;75635;-76
2023/04/15 22:06:08;;;;;;;;;;;;;;;8.78;75.46;100349.14;216249;1252;73865;-75
2023/04/15 22:11:01;;;;;;;;;;;;;;;8.79;75.49;100349.33;216186;1251;61779;-75
2023/04/15 22:15:53;;;;;;;;;;;;;;;8.78;75.47;100357.62;216238;1252;61346;-75
2023/04/15 22:20:46;;;;;;;;;;;;;;;8.78;75.73;100363.66;216191;1251;62064;-73
2023/04/15 22:25:39;;;;;;;;;;;;;;;8.78;75.76;100365.56;216288;1251;61423;-73
2023/04/15 22:30:32;;;;;;;;;;;;;;;8.76;75.93;100376.95;216277;1251;61571;-73
2023/04/15 22:35:25;;;;;;;;;;;;;;;8.75;75.92;100382.27;216285;1251;61349;-73
2023/04/15 22:40:17;;;;;;;;;;;;;;;8.70;75.93;100390.11;216175;1251;61296;-73
2023/04/15 22:45:10;;;;;;;;;;;;;;;8.67;76.29;100388.33;216135;1253;61315;-73
2023/04/15 22:50:03;;;;;;;;;;;;;;;8.63;76.23;100388.60;216085;1251;61882;-73
2023/04/15 22:54:56;;;;;;;;;;;;;;;8.61;76.44;100394.77;216106;1254;61262;-73
2023/04/15 22:59:48;;;;;;;;;;;;;;;8.60;76.56;100392.16;216267;1251;61217;-73
2023/04/15 23:04:41;;;;;;;;;;;;;;;8.60;76.84;100394.59;216126;1251;70056;-74
2023/04/15 23:09:34;;;;;;;;;;;;;;;8.61;76.90;100390.79;216240;1251;61241;-74
2023/04/15 23:14:27;;;;;;;;;;;;;;;8.61;76.94;100393.73;216288;1256;61262;-73
2023/04/15 23:19:20;;;;;;;;;;;;;;;8.58;77.04;100392.30;216188;1251;61324;-73
2023/04/15 23:24:13;;;;;;;;;;;;;;;8.57;77.14;100389.53;216156;1251;61267;-73
2023/04/15 23:29:07;;;;;;;;;;;;;;;8.56;77.20;100388.63;216109;1256;61230;-73
2023/04/15 23:34:00;;;;;;;;;;;;;;;8.55;77.34;100392.60;216322;1251;61269;-73
2023/04/15 23:38:53;;;;;;;;;;;;;;;8.56;77.26;100392.61;216020;1251;61330;-73
2023/04/15 23:43:45;;;;;;;;;;;;;;;8.55;77.38;100400.36;216008;1251;61389;-73
2023/04/15 23:48:39;;;;;;;;;;;;;;;8.50;77.39;100403.02;216022;1251;61386;-73
2023/04/15 23:53:32;;;;;;;;;;;;;;;8.47;77.47;100405.71;215986;1256;71352;-73
2023/04/15 23:58:24;;;;;;;;;;;;;;;8.43;77.75;100412.38;215945;1251;61320;-74
